Impacts METAR Board INFO
IDs:

KMCO - Orlando Intl, FL, US

Updated at: 0347 UTC 20 Feb 2018
Potential Impact None Slight Moderate High
Time19/15Z 19/16Z 19/17Z 19/18Z 19/19Z 19/20Z 19/21Z 19/22Z 19/23Z 20/00Z 20/01Z 20/02Z 20/03Z
VIS10 10 10 10 10 10 10 10 10 10 10 10 10
CIG-- -- -- -- -- -- -- -- -- -- -- 65 --
CoverSCTSCTSCTSCTSCTFEWFEWSCTSCTFEWFEWBKNFEW
FltCatVFRVFRVFRVFRVFRVFRVFRVFRVFRVFRVFRVFRVFR
WX--------------------------
WDir1101001201001001008010090100100100100
WSpd11 11 12 12 11 14 12 16 14 11 10 8 7
WGst-- -- 18 -- 17 -- -- -- -- -- -- -- --
Raw hourly METARs
KMCO 191453Z 11011KT 10SM SCT019 25/19 A3033 RMK AO2 SLP269 T02500194 51013
KMCO 191553Z 10011KT 10SM SCT027 27/18 A3033 RMK AO2 SLP270 T02670178
KMCO 191653Z 12012G18KT 10SM SCT040 27/17 A3032 RMK AO2 SLP266 T02720167
KMCO 191753Z 10012KT 10SM SCT045 28/16 A3029 RMK AO2 SLP256 T02780161 10283 20172 58013
KMCO 191853Z 10011G17KT 10SM SCT050 28/16 A3026 RMK AO2 SLP247 T02830161
KMCO 191953Z COR 10014KT 10SM FEW041 28/17 A3025 RMK AO2 SLP243 T02780172
KMCO 192053Z 08012KT 10SM FEW047 27/17 A3025 RMK AO2 SLP243 T02670172 55013
KMCO 192153Z 10016KT 10SM FEW038 SCT045 26/19 A3026 RMK AO2 SLP245 T02610189
KMCO 192253Z 09014KT 10SM FEW045 SCT070 24/19 A3027 RMK AO2 SLP249 T02440194
KMCO 192353Z 10011KT 10SM FEW045 FEW070 23/20 A3028 RMK AO2 SLP250 T02330200 10289 20233 51007
KMCO 200053Z 10010KT 10SM FEW040 FEW060 23/21 A3029 RMK AO2 SLP254 T02280206
KMCO 200153Z 10008KT 10SM BKN065 23/21 A3030 RMK AO2 SLP258 T02280206
KMCO 200253Z 10007KT 10SM FEW040 FEW065 22/20 A3031 RMK AO2 SLP263 T02220200 53012